Platzwetter Flugplatz Wels

Flugwetter Linz LOWL

[Quelle: ADDS]
METAR
LOWL 182320Z AUTO 25013KT 9999 -RA FEW020 BKN026 01/M00 Q1024 =
LOWL 182315Z 1900/1924 27005KT 9000 SCT040 TX02/1914Z TNM00/1907Z PROB30 TEMPO 1900/1901 3500 -SHSN OVC012 BECMG 1900/1901 28004KT TEMPO 1916/1924 2500 SHRASN BKN012
TAF
LOWL 182315Z 1900/1924 27005KT 9000 SCT040 TX02/1914Z TNM00/1907Z PROB30 TEMPO 1900/1901 3500 -SHSN OVC012 BECMG 1900/1901 28004KT TEMPO 1916/1924 2500 SHRASN BKN012 =

Flugwetter Salzburg LOWS

[Quelle: ADDS]
METAR
LOWS 182320Z AUTO 26004KT 220V310 9999 FEW038 BKN060 01/M04 Q1024 =
LOWS 182315Z 1900/1924 16006KT 9999 SCT060 TX04/1913Z TNM02/1906Z BECMG 1914/1916 SCT050 BKN090 TEMPO 1916/1922 -SHRA BKN050 PROB30 TEMPO 1916/1918 25010KT -SHRASN BECMG 1922/1924 16005KT
TAF
LOWS 182315Z 1900/1924 16006KT 9999 SCT060 TX04/1913Z TNM02/1906Z BECMG 1914/1916 SCT050 BKN090 TEMPO 1916/1922 -SHRA BKN050 PROB30 TEMPO 1916/1918 25010KT -SHRASN BECMG 1922/1924 16005KT =

Wind - Verlauf

Windrichtung - Verlauf

Temperatur - Verlauf

Relative Luftfeuchtigkeit - Verlauf

Luftdruck - Verlauf

Cookies erleichtern die Bereitstellung unserer Dienste. Mit der Nutzung unserer Dienste erklären Sie sich damit einverstanden, dass wir Cookies verwenden.
Weitere Informationen Ok